sensor_id;sensor_type;location;lat;lon;timestamp;pressure;altitude;pressure_sealevel;temperature;humidity
6500;BME280;3283;52.330;9.772;2024-03-17T00:01:04;100825.06;;;2.45;100.00
6500;BME280;3283;52.330;9.772;2024-03-17T00:03:30;100818.94;;;2.40;100.00
6500;BME280;3283;52.330;9.772;2024-03-17T00:05:57;100820.53;;;2.35;100.00
6500;BME280;3283;52.330;9.772;2024-03-17T00:08:23;100826.50;;;2.32;100.00
6500;BME280;3283;52.330;9.772;2024-03-17T00:10:52;100820.44;;;2.32;100.00
6500;BME280;3283;52.330;9.772;2024-03-17T00:13:18;100825.56;;;2.29;100.00
6500;BME280;3283;52.330;9.772;2024-03-17T00:15:44;100822.06;;;2.27;100.00
6500;BME280;3283;52.330;9.772;2024-03-17T00:18:12;100823.78;;;2.26;100.00
6500;BME280;3283;52.330;9.772;2024-03-17T00:20:37;100825.50;;;2.26;100.00
6500;BME280;3283;52.330;9.772;2024-03-17T00:23:04;100824.47;;;2.19;100.00
6500;BME280;3283;52.330;9.772;2024-03-17T00:25:34;100830.81;;;1.96;100.00
6500;BME280;3283;52.330;9.772;2024-03-17T00:28:01;100836.44;;;1.79;100.00
6500;BME280;3283;52.330;9.772;2024-03-17T00:30:26;100835.38;;;1.71;100.00
6500;BME280;3283;52.330;9.772;2024-03-17T00:32:52;100831.94;;;1.72;100.00
6500;BME280;3283;52.330;9.772;2024-03-17T00:35:17;100838.81;;;1.70;100.00
6500;BME280;3283;52.330;9.772;2024-03-17T00:37:49;100843.03;;;1.67;100.00
6500;BME280;3283;52.330;9.772;2024-03-17T00:40:15;100841.25;;;1.64;100.00
6500;BME280;3283;52.330;9.772;2024-03-17T00:42:42;100843.03;;;1.67;100.00
6500;BME280;3283;52.330;9.772;2024-03-17T00:45:08;100842.97;;;1.63;100.00
6500;BME280;3283;52.330;9.772;2024-03-17T00:47:35;100844.56;;;1.60;100.00
6500;BME280;3283;52.330;9.772;2024-03-17T00:50:01;100849.91;;;1.64;100.00
6500;BME280;3283;52.330;9.772;2024-03-17T00:52:27;100842.09;;;1.63;100.00
6500;BME280;3283;52.330;9.772;2024-03-17T00:54:53;100839.56;;;1.66;100.00
6500;BME280;3283;52.330;9.772;2024-03-17T00:57:19;100843.03;;;1.67;100.00
6500;BME280;3283;52.330;9.772;2024-03-17T00:59:44;100835.22;;;1.65;100.00
6500;BME280;3283;52.330;9.772;2024-03-17T01:02:14;100837.00;;;1.68;100.00
6500;BME280;3283;52.330;9.772;2024-03-17T01:04:41;100837.94;;;1.70;100.00
6500;BME280;3283;52.330;9.772;2024-03-17T01:07:07;100836.06;;;1.64;100.00
6500;BME280;3283;52.330;9.772;2024-03-17T01:09:33;100844.78;;;1.68;100.00
6500;BME280;3283;52.330;9.772;2024-03-17T01:11:58;100834.16;;;1.58;100.00
6500;BME280;3283;52.330;9.772;2024-03-17T01:14:23;100841.81;;;1.54;100.00
6500;BME280;3283;52.330;9.772;2024-03-17T01:16:50;100830.47;;;1.49;100.00
6500;BME280;3283;52.330;9.772;2024-03-17T01:19:16;100832.06;;;1.45;100.00
6500;BME280;3283;52.330;9.772;2024-03-17T01:21:41;100835.44;;;1.41;100.00
6500;BME280;3283;52.330;9.772;2024-03-17T01:24:07;100833.63;;;1.38;100.00
6500;BME280;3283;52.330;9.772;2024-03-17T01:26:32;100834.28;;;1.31;100.00
6500;BME280;3283;52.330;9.772;2024-03-17T01:28:58;100825.09;;;1.13;100.00
6500;BME280;3283;52.330;9.772;2024-03-17T01:31:24;100830.66;;;1.25;100.00
6500;BME280;3283;52.330;9.772;2024-03-17T01:33:50;100832.28;;;1.21;100.00
6500;BME280;3283;52.330;9.772;2024-03-17T01:36:15;100833.34;;;1.28;100.00
6500;BME280;3283;52.330;9.772;2024-03-17T01:38:41;100830.69;;;1.26;100.00
6500;BME280;3283;52.330;9.772;2024-03-17T01:41:06;100834.03;;;1.22;100.00
6500;BME280;3283;52.330;9.772;2024-03-17T01:43:32;100830.56;;;1.22;100.00
6500;BME280;3283;52.330;9.772;2024-03-17T01:45:58;100826.88;;;1.14;100.00
6500;BME280;3283;52.330;9.772;2024-03-17T01:48:25;100826.06;;;1.15;100.00
6500;BME280;3283;52.330;9.772;2024-03-17T01:50:53;100820.00;;;1.14;100.00
6500;BME280;3283;52.330;9.772;2024-03-17T01:53:21;100818.16;;;1.12;100.00
6500;BME280;3283;52.330;9.772;2024-03-17T01:55:47;100818.13;;;1.10;100.00
6500;BME280;3283;52.330;9.772;2024-03-17T01:58:13;100817.25;;;1.09;100.00
6500;BME280;3283;52.330;9.772;2024-03-17T02:00:39;100835.75;;;0.63;100.00
6500;BME280;3283;52.330;9.772;2024-03-17T02:03:08;100829.13;;;1.01;100.00
6500;BME280;3283;52.330;9.772;2024-03-17T02:05:35;100818.06;;;1.07;100.00
6500;BME280;3283;52.330;9.772;2024-03-17T02:08:04;100820.50;;;1.02;100.00
6500;BME280;3283;52.330;9.772;2024-03-17T02:10:29;100820.59;;;1.05;100.00
6500;BME280;3283;52.330;9.772;2024-03-17T02:12:54;100820.50;;;1.02;100.00
6500;BME280;3283;52.330;9.772;2024-03-17T02:15:20;100822.25;;;1.03;100.00
6500;BME280;3283;52.330;9.772;2024-03-17T02:17:45;100816.25;;;1.04;100.00
6500;BME280;3283;52.330;9.772;2024-03-17T02:20:11;100816.13;;;1.00;100.00
6500;BME280;3283;52.330;9.772;2024-03-17T02:22:37;100821.13;;;0.94;100.00
6500;BME280;3283;52.330;9.772;2024-03-17T02:25:03;100816.66;;;0.88;100.00
6500;BME280;3283;52.330;9.772;2024-03-17T02:27:28;100809.72;;;0.87;100.00
6500;BME280;3283;52.330;9.772;2024-03-17T02:29:55;100829.63;;;0.90;100.00
6500;BME280;3283;52.330;9.772;2024-03-17T02:32:20;100823.56;;;0.89;100.00
6500;BME280;3283;52.330;9.772;2024-03-17T02:34:48;100822.69;;;0.89;100.00
6500;BME280;3283;52.330;9.772;2024-03-17T02:37:13;100816.69;;;0.90;100.00
6500;BME280;3283;52.330;9.772;2024-03-17T02:39:39;100808.84;;;0.87;100.00
6500;BME280;3283;52.330;9.772;2024-03-17T02:42:07;100818.44;;;0.91;100.00
6500;BME280;3283;52.330;9.772;2024-03-17T02:44:34;100814.19;;;0.93;100.00
6500;BME280;3283;52.330;9.772;2024-03-17T02:47:01;100812.34;;;0.89;100.00
6500;BME280;3283;52.330;9.772;2024-03-17T02:49:28;100815.03;;;0.92;100.00
6500;BME280;3283;52.330;9.772;2024-03-17T02:52:00;100806.13;;;0.83;100.00
6500;BME280;3283;52.330;9.772;2024-03-17T02:54:26;100807.66;;;0.77;100.00
6500;BME280;3283;52.330;9.772;2024-03-17T02:56:51;100807.59;;;0.74;100.00
6500;BME280;3283;52.330;9.772;2024-03-17T02:59:17;100808.38;;;0.71;100.00
6500;BME280;3283;52.330;9.772;2024-03-17T03:01:42;100803.91;;;0.66;100.00
6500;BME280;3283;52.330;9.772;2024-03-17T03:04:08;100806.28;;;0.60;100.00
6500;BME280;3283;52.330;9.772;2024-03-17T03:06:34;100814.88;;;0.57;100.00
6500;BME280;3283;52.330;9.772;2024-03-17T03:08:59;100822.47;;;0.52;100.00
6500;BME280;3283;52.330;9.772;2024-03-17T03:11:25;100824.06;;;0.49;100.00
6500;BME280;3283;52.330;9.772;2024-03-17T03:13:51;100827.56;;;0.49;100.00
6500;BME280;3283;52.330;9.772;2024-03-17T03:16:17;100824.16;;;0.50;100.00
6500;BME280;3283;52.330;9.772;2024-03-17T03:18:44;100830.97;;;0.48;100.00
6500;BME280;3283;52.330;9.772;2024-03-17T03:21:10;100829.22;;;0.47;100.00
6500;BME280;3283;52.330;9.772;2024-03-17T03:23:36;100829.19;;;0.46;100.00
6500;BME280;3283;52.330;9.772;2024-03-17T03:26:02;100824.88;;;0.46;100.00
6500;BME280;3283;52.330;9.772;2024-03-17T03:28:30;100823.84;;;0.41;100.00
6500;BME280;3283;52.330;9.772;2024-03-17T03:30:56;100817.91;;;0.44;100.00
6500;BME280;3283;52.330;9.772;2024-03-17T03:33:22;100813.50;;;0.41;100.00
6500;BME280;3283;52.330;9.772;2024-03-17T03:35:47;100813.50;;;0.41;100.00
6500;BME280;3283;52.330;9.772;2024-03-17T03:38:14;100821.38;;;0.44;100.00
6500;BME280;3283;52.330;9.772;2024-03-17T03:40:41;100820.34;;;0.39;100.00
6500;BME280;3283;52.330;9.772;2024-03-17T03:43:07;100820.25;;;0.36;100.00
6500;BME280;3283;52.330;9.772;2024-03-17T03:45:33;100821.16;;;0.38;100.00
6500;BME280;3283;52.330;9.772;2024-03-17T03:47:59;100820.28;;;0.38;100.00
6500;BME280;3283;52.330;9.772;2024-03-17T03:50:25;100822.13;;;0.42;100.00
6500;BME280;3283;52.330;9.772;2024-03-17T03:52:50;100823.00;;;0.42;100.00
6500;BME280;3283;52.330;9.772;2024-03-17T03:55:16;100825.50;;;0.39;100.00
6500;BME280;3283;52.330;9.772;2024-03-17T03:57:43;100826.22;;;0.35;100.00
6500;BME280;3283;52.330;9.772;2024-03-17T04:00:11;100830.59;;;0.36;100.00
6500;BME280;3283;52.330;9.772;2024-03-17T04:02:50;100824.63;;;0.39;100.00
6500;BME280;3283;52.330;9.772;2024-03-17T04:05:17;100829.91;;;0.42;100.00
6500;BME280;3283;52.330;9.772;2024-03-17T04:07:43;100830.72;;;0.41;100.00
6500;BME280;3283;52.330;9.772;2024-03-17T04:10:11;100826.38;;;0.40;100.00
6500;BME280;3283;52.330;9.772;2024-03-17T04:12:39;100824.63;;;0.39;100.00
6500;BME280;3283;52.330;9.772;2024-03-17T04:15:05;100827.38;;;0.43;100.00
6500;BME280;3283;52.330;9.772;2024-03-17T04:17:32;100828.31;;;0.45;100.00
6500;BME280;3283;52.330;9.772;2024-03-17T04:19:58;100831.97;;;0.52;100.00
6500;BME280;3283;52.330;9.772;2024-03-17T04:22:23;100832.63;;;0.46;100.00
6500;BME280;3283;52.330;9.772;2024-03-17T04:24:49;100827.50;;;0.48;100.00
6500;BME280;3283;52.330;9.772;2024-03-17T04:27:24;100829.41;;;0.53;100.00
6500;BME280;3283;52.330;9.772;2024-03-17T04:29:52;100829.59;;;0.60;100.00
6500;BME280;3283;52.330;9.772;2024-03-17T04:32:17;100828.03;;;0.65;100.00
6500;BME280;3283;52.330;9.772;2024-03-17T04:34:43;100827.38;;;0.72;100.00
6500;BME280;3283;52.330;9.772;2024-03-17T04:37:09;100831.63;;;0.70;100.00
6500;BME280;3283;52.330;9.772;2024-03-17T04:39:38;100822.91;;;0.66;100.00
6500;BME280;3283;52.330;9.772;2024-03-17T04:42:04;100833.09;;;0.62;100.00
6500;BME280;3283;52.330;9.772;2024-03-17T04:44:30;100843.22;;;0.54;100.00
6500;BME280;3283;52.330;9.772;2024-03-17T04:46:55;100839.56;;;0.47;100.00
6500;BME280;3283;52.330;9.772;2024-03-17T04:49:20;100841.13;;;0.42;100.00
6500;BME280;3283;52.330;9.772;2024-03-17T04:51:46;100843.56;;;0.36;100.00
6500;BME280;3283;52.330;9.772;2024-03-17T04:54:11;100843.78;;;0.44;100.00
6500;BME280;3283;52.330;9.772;2024-03-17T04:56:36;100850.69;;;0.43;100.00
6500;BME280;3283;52.330;9.772;2024-03-17T04:59:02;100844.56;;;0.41;100.00
6500;BME280;3283;52.330;9.772;2024-03-17T05:01:27;100842.75;;;0.39;100.00
6500;BME280;3283;52.330;9.772;2024-03-17T05:03:53;100844.56;;;0.41;100.00
6500;BME280;3283;52.330;9.772;2024-03-17T05:06:18;100849.66;;;0.38;100.00
6500;BME280;3283;52.330;9.772;2024-03-17T05:08:44;100851.31;;;0.36;100.00
6500;BME280;3283;52.330;9.772;2024-03-17T05:11:09;100849.53;;;0.35;100.00
6500;BME280;3283;52.330;9.772;2024-03-17T05:13:36;100857.41;;;0.38;100.00
6500;BME280;3283;52.330;9.772;2024-03-17T05:16:05;100861.75;;;0.39;100.00
6500;BME280;3283;52.330;9.772;2024-03-17T05:18:31;100860.88;;;0.39;100.00
6500;BME280;3283;52.330;9.772;2024-03-17T05:21:03;100866.94;;;0.39;100.00
6500;BME280;3283;52.330;9.772;2024-03-17T05:23:33;100865.50;;;0.49;100.00
6500;BME280;3283;52.330;9.772;2024-03-17T05:25:59;100869.97;;;0.53;100.00
6500;BME280;3283;52.330;9.772;2024-03-17T05:28:27;100864.00;;;0.55;100.00
6500;BME280;3283;52.330;9.772;2024-03-17T05:30:53;100867.38;;;0.53;100.00
6500;BME280;3283;52.330;9.772;2024-03-17T05:33:19;100869.00;;;0.49;100.00
6500;BME280;3283;52.330;9.772;2024-03-17T05:35:54;100873.22;;;0.47;100.00
6500;BME280;3283;52.330;9.772;2024-03-17T05:38:21;100870.41;;;0.40;100.00
6500;BME280;3283;52.330;9.772;2024-03-17T05:40:57;100870.25;;;0.35;100.00
6500;BME280;3283;52.330;9.772;2024-03-17T05:43:24;100872.06;;;0.38;100.00
6500;BME280;3283;52.330;9.772;2024-03-17T05:45:51;100871.91;;;0.33;100.00
6500;BME280;3283;52.330;9.772;2024-03-17T05:48:16;100879.66;;;0.33;100.00
6500;BME280;3283;52.330;9.772;2024-03-17T05:50:42;100876.25;;;0.34;100.00
6500;BME280;3283;52.330;9.772;2024-03-17T05:53:07;100880.50;;;0.32;100.00
6500;BME280;3283;52.330;9.772;2024-03-17T05:55:35;100881.53;;;0.37;100.00
6500;BME280;3283;52.330;9.772;2024-03-17T05:58:02;100885.88;;;0.38;100.00
6500;BME280;3283;52.330;9.772;2024-03-17T06:00:27;100886.75;;;0.39;100.00
6500;BME280;3283;52.330;9.772;2024-03-17T06:02:53;100889.50;;;0.43;100.00
6500;BME280;3283;52.330;9.772;2024-03-17T06:05:18;100893.81;;;0.43;100.00
6500;BME280;3283;52.330;9.772;2024-03-17T06:07:43;100898.34;;;0.50;100.00
6500;BME280;3283;52.330;9.772;2024-03-17T06:10:09;100898.59;;;0.58;100.00
6500;BME280;3283;52.330;9.772;2024-03-17T06:12:34;100893.69;;;0.67;100.00
6500;BME280;3283;52.330;9.772;2024-03-17T06:15:00;100896.56;;;0.76;100.00
6500;BME280;3283;52.330;9.772;2024-03-17T06:17:27;100892.22;;;0.75;100.00
6500;BME280;3283;52.330;9.772;2024-03-17T06:19:52;100893.22;;;0.78;100.00
6500;BME280;3283;52.330;9.772;2024-03-17T06:22:18;100889.16;;;0.87;100.00
6500;BME280;3283;52.330;9.772;2024-03-17T06:24:43;100891.81;;;0.90;100.00
6500;BME280;3283;52.330;9.772;2024-03-17T06:27:09;100884.28;;;0.97;100.00
6500;BME280;3283;52.330;9.772;2024-03-17T06:29:34;100886.03;;;0.98;100.00
6500;BME280;3283;52.330;9.772;2024-03-17T06:31:59;100893.75;;;0.97;100.00
6500;BME280;3283;52.330;9.772;2024-03-17T06:34:25;100887.16;;;1.06;100.00
6500;BME280;3283;52.330;9.772;2024-03-17T06:36:51;100890.94;;;1.18;100.00
6500;BME280;3283;52.330;9.772;2024-03-17T06:39:16;100883.16;;;1.18;100.00
6500;BME280;3283;52.330;9.772;2024-03-17T06:41:42;100886.00;;;1.27;100.00
6500;BME280;3283;52.330;9.772;2024-03-17T06:44:08;100881.66;;;1.26;100.00
6500;BME280;3283;52.330;9.772;2024-03-17T06:46:34;100887.19;;;1.38;100.00
6500;BME280;3283;52.330;9.772;2024-03-17T06:49:00;100885.91;;;1.54;100.00
6500;BME280;3283;52.330;9.772;2024-03-17T06:51:25;100882.72;;;1.62;100.00
6500;BME280;3283;52.330;9.772;2024-03-17T06:53:50;100882.16;;;1.74;100.00
6500;BME280;3283;52.330;9.772;2024-03-17T06:56:16;100878.09;;;1.84;100.00
6500;BME280;3283;52.330;9.772;2024-03-17T06:58:41;100876.47;;;1.89;100.00
6500;BME280;3283;52.330;9.772;2024-03-17T07:01:08;100873.97;;;1.92;100.00
6500;BME280;3283;52.330;9.772;2024-03-17T07:03:33;100876.59;;;1.92;100.00
6500;BME280;3283;52.330;9.772;2024-03-17T07:06:00;100872.22;;;1.91;100.00
6500;BME280;3283;52.330;9.772;2024-03-17T07:08:28;100875.78;;;1.95;100.00
6500;BME280;3283;52.330;9.772;2024-03-17T07:13:22;100870.19;;;2.12;100.00
6500;BME280;3283;52.330;9.772;2024-03-17T07:15:48;100869.44;;;2.18;100.00
6500;BME280;3283;52.330;9.772;2024-03-17T07:18:14;100859.38;;;2.32;100.00
6500;BME280;3283;52.330;9.772;2024-03-17T07:20:40;100861.34;;;2.40;100.00
6500;BME280;3283;52.330;9.772;2024-03-17T07:23:05;100860.69;;;2.49;100.00
6500;BME280;3283;52.330;9.772;2024-03-17T07:25:31;100858.28;;;2.58;100.00
6500;BME280;3283;52.330;9.772;2024-03-17T07:27:56;100859.41;;;2.68;100.00
6500;BME280;3283;52.330;9.772;2024-03-17T07:30:22;100866.44;;;2.73;100.00
6500;BME280;3283;52.330;9.772;2024-03-17T07:32:47;100861.25;;;2.73;100.00
6500;BME280;3283;52.330;9.772;2024-03-17T07:35:13;100867.53;;;2.83;100.00
6500;BME280;3283;52.330;9.772;2024-03-17T07:37:39;100859.06;;;2.92;100.00
6500;BME280;3283;52.330;9.772;2024-03-17T07:40:05;100864.69;;;3.12;100.00
6500;BME280;3283;52.330;9.772;2024-03-17T07:42:36;100865.53;;;3.11;100.00
6500;BME280;3283;52.330;9.772;2024-03-17T07:45:01;100866.66;;;3.23;100.00
6500;BME280;3283;52.330;9.772;2024-03-17T07:47:27;100865.28;;;3.41;100.00
6500;BME280;3283;52.330;9.772;2024-03-17T07:50:03;100864.47;;;3.45;100.00
6500;BME280;3283;52.330;9.772;2024-03-17T07:52:31;100869.81;;;3.51;100.00
6500;BME280;3283;52.330;9.772;2024-03-17T07:54:57;100869.16;;;3.61;100.00
6500;BME280;3283;52.330;9.772;2024-03-17T07:57:23;100867.84;;;3.83;100.00
6500;BME280;3283;52.330;9.772;2024-03-17T07:59:51;100866.28;;;3.94;100.00
6500;BME280;3283;52.330;9.772;2024-03-17T08:02:18;100866.59;;;4.09;100.00
6500;BME280;3283;52.330;9.772;2024-03-17T08:04:43;100866.88;;;4.28;100.00
6500;BME280;3283;52.330;9.772;2024-03-17T08:07:12;100871.28;;;4.30;100.00
6500;BME280;3283;52.330;9.772;2024-03-17T08:09:37;100861.91;;;4.43;100.00
6500;BME280;3283;52.330;9.772;2024-03-17T08:12:03;100865.34;;;4.40;100.00
6500;BME280;3283;52.330;9.772;2024-03-17T08:14:30;100868.28;;;4.60;100.00
6500;BME280;3283;52.330;9.772;2024-03-17T08:16:56;100851.91;;;4.71;100.00
6500;BME280;3283;52.330;9.772;2024-03-17T08:19:22;100856.31;;;4.75;100.00
6500;BME280;3283;52.330;9.772;2024-03-17T08:21:47;100858.88;;;4.72;100.00
6500;BME280;3283;52.330;9.772;2024-03-17T08:24:12;100856.47;;;4.85;100.00
6500;BME280;3283;52.330;9.772;2024-03-17T08:26:38;100855.75;;;4.95;100.00
6500;BME280;3283;52.330;9.772;2024-03-17T08:29:05;100847.25;;;5.10;100.00
6500;BME280;3283;52.330;9.772;2024-03-17T08:31:31;100846.56;;;5.25;100.00
6500;BME280;3283;52.330;9.772;2024-03-17T08:33:56;100843.09;;;5.26;100.00
6500;BME280;3283;52.330;9.772;2024-03-17T08:36:21;100844.13;;;5.40;100.00
6500;BME280;3283;52.330;9.772;2024-03-17T08:38:47;100845.16;;;5.53;100.00
6500;BME280;3283;52.330;9.772;2024-03-17T08:41:13;100834.03;;;5.71;100.00
6500;BME280;3283;52.330;9.772;2024-03-17T08:43:39;100833.31;;;5.87;100.00
6500;BME280;3283;52.330;9.772;2024-03-17T08:46:07;100834.28;;;5.92;100.00
6500;BME280;3283;52.330;9.772;2024-03-17T08:48:38;100834.28;;;5.94;100.00
6500;BME280;3283;52.330;9.772;2024-03-17T08:51:04;100822.28;;;6.16;100.00
6500;BME280;3283;52.330;9.772;2024-03-17T08:53:30;100824.72;;;5.97;100.00
6500;BME280;3283;52.330;9.772;2024-03-17T08:55:57;100826.72;;;6.23;100.00
6500;BME280;3283;52.330;9.772;2024-03-17T08:58:24;100819.63;;;6.07;100.00
6500;BME280;3283;52.330;9.772;2024-03-17T09:00:49;100822.28;;;6.16;100.00
6500;BME280;3283;52.330;9.772;2024-03-17T09:03:15;100815.63;;;6.62;100.00
6500;BME280;3283;52.330;9.772;2024-03-17T09:05:42;100824.31;;;6.52;100.00
6500;BME280;3283;52.330;9.772;2024-03-17T09:08:08;100821.59;;;6.41;98.27
6500;BME280;3283;52.330;9.772;2024-03-17T09:10:40;100824.34;;;6.59;95.29
6500;BME280;3283;52.330;9.772;2024-03-17T09:13:06;100819.22;;;6.73;93.82
6500;BME280;3283;52.330;9.772;2024-03-17T09:15:31;100821.81;;;6.76;94.58
6500;BME280;3283;52.330;9.772;2024-03-17T09:17:56;100824.25;;;6.44;95.76
6500;BME280;3283;52.330;9.772;2024-03-17T09:20:22;100836.28;;;6.22;96.83
6500;BME280;3283;52.330;9.772;2024-03-17T09:22:47;100829.44;;;6.37;96.06
6500;BME280;3283;52.330;9.772;2024-03-17T09:25:13;100825.22;;;6.55;90.58
6500;BME280;3283;52.330;9.772;2024-03-17T09:27:40;100824.56;;;6.93;89.65
6500;BME280;3283;52.330;9.772;2024-03-17T09:30:06;100823.66;;;6.86;89.76
6500;BME280;3283;52.330;9.772;2024-03-17T09:32:35;100820.28;;;7.15;89.90
6500;BME280;3283;52.330;9.772;2024-03-17T09:35:01;100827.28;;;7.18;90.39
6500;BME280;3283;52.330;9.772;2024-03-17T09:37:28;100825.63;;;7.44;89.40
6500;BME280;3283;52.330;9.772;2024-03-17T09:39:56;100824.81;;;7.66;87.66
6500;BME280;3283;52.330;9.772;2024-03-17T09:42:22;100821.31;;;7.67;84.81
6500;BME280;3283;52.330;9.772;2024-03-17T09:44:50;100832.72;;;7.79;83.31
6500;BME280;3283;52.330;9.772;2024-03-17T09:47:21;100839.59;;;7.41;84.21
6500;BME280;3283;52.330;9.772;2024-03-17T09:49:47;100838.66;;;7.21;86.22
6500;BME280;3283;52.330;9.772;2024-03-17T09:52:32;100836.97;;;7.35;85.88
6500;BME280;3283;52.330;9.772;2024-03-17T09:55:01;100829.16;;;7.60;85.10
6500;BME280;3283;52.330;9.772;2024-03-17T09:57:33;100838.75;;;7.52;84.01
6500;BME280;3283;52.330;9.772;2024-03-17T10:00:04;100829.13;;;7.40;85.17
6500;BME280;3283;52.330;9.772;2024-03-17T10:02:30;100829.16;;;7.52;83.89
6500;BME280;3283;52.330;9.772;2024-03-17T10:04:56;100825.69;;;7.67;82.87
6500;BME280;3283;52.330;9.772;2024-03-17T10:07:37;100833.63;;;8.23;80.86
6500;BME280;3283;52.330;9.772;2024-03-17T10:10:12;100817.88;;;8.10;80.06
6500;BME280;3283;52.330;9.772;2024-03-17T10:12:38;100821.41;;;8.25;79.81
6500;BME280;3283;52.330;9.772;2024-03-17T10:15:04;100818.78;;;8.62;78.06
6500;BME280;3283;52.330;9.772;2024-03-17T10:17:33;100814.31;;;8.96;75.65
6500;BME280;3283;52.330;9.772;2024-03-17T10:20:16;100814.41;;;8.37;75.41
6500;BME280;3283;52.330;9.772;2024-03-17T10:23:01;100818.75;;;8.76;72.97
6500;BME280;3283;52.330;9.772;2024-03-17T10:25:28;100818.75;;;8.16;73.74
6500;BME280;3283;52.330;9.772;2024-03-17T10:27:55;100822.25;;;8.09;75.25
6500;BME280;3283;52.330;9.772;2024-03-17T10:30:22;100820.53;;;8.56;75.40
6500;BME280;3283;52.330;9.772;2024-03-17T10:32:58;100822.28;;;8.55;72.51
6500;BME280;3283;52.330;9.772;2024-03-17T10:35:35;100819.56;;;8.93;71.20
6500;BME280;3283;52.330;9.772;2024-03-17T10:38:05;100823.13;;;8.68;69.78
6500;BME280;3283;52.330;9.772;2024-03-17T10:40:31;100828.25;;;9.14;67.46
6500;BME280;3283;52.330;9.772;2024-03-17T10:43:00;100829.69;;;9.80;65.49
6500;BME280;3283;52.330;9.772;2024-03-17T10:45:26;100828.50;;;10.24;63.44
6500;BME280;3283;52.330;9.772;2024-03-17T10:47:59;100828.53;;;10.23;63.19
6500;BME280;3283;52.330;9.772;2024-03-17T10:50:30;100830.94;;;10.47;61.89
6500;BME280;3283;52.330;9.772;2024-03-17T10:53:01;100824.31;;;9.91;59.79
6500;BME280;3283;52.330;9.772;2024-03-17T10:55:32;100814.66;;;9.96;58.98
6500;BME280;3283;52.330;9.772;2024-03-17T10:57:59;100813.44;;;10.41;58.02
6500;BME280;3283;52.330;9.772;2024-03-17T11:00:29;100809.22;;;10.19;57.78
6500;BME280;3283;52.330;9.772;2024-03-17T11:02:55;100810.59;;;10.66;57.20
6500;BME280;3283;52.330;9.772;2024-03-17T11:05:24;100804.38;;;10.73;55.97
6500;BME280;3283;52.330;9.772;2024-03-17T11:07:52;100807.00;;;10.73;55.05
6500;BME280;3283;52.330;9.772;2024-03-17T11:10:28;100795.94;;;10.37;54.37
6500;BME280;3283;52.330;9.772;2024-03-17T11:20:34;100801.66;;;9.72;56.37
6500;BME280;3283;52.330;9.772;2024-03-17T11:22:59;100790.09;;;9.99;55.72
6500;BME280;3283;52.330;9.772;2024-03-17T11:27:51;100794.63;;;9.78;55.39
6500;BME280;3283;52.330;9.772;2024-03-17T11:41:45;100780.44;;;10.02;55.06
6500;BME280;3283;52.330;9.772;2024-03-17T11:47:00;100771.72;;;9.97;55.43
6500;BME280;3283;52.330;9.772;2024-03-17T11:49:44;100762.50;;;10.50;54.91
6500;BME280;3283;52.330;9.772;2024-03-17T11:52:12;100757.94;;;10.66;53.52
6500;BME280;3283;52.330;9.772;2024-03-17T11:54:39;100758.97;;;10.51;53.06
6500;BME280;3283;52.330;9.772;2024-03-17T11:57:07;100755.97;;;9.93;53.17
6500;BME280;3283;52.330;9.772;2024-03-17T11:59:33;100752.72;;;9.57;53.04
6500;BME280;3283;52.330;9.772;2024-03-17T12:02:00;100762.00;;;10.04;53.40
6500;BME280;3283;52.330;9.772;2024-03-17T12:04:26;100756.66;;;10.13;53.49
6500;BME280;3283;52.330;9.772;2024-03-17T12:06:55;100756.56;;;10.27;52.34
6500;BME280;3283;52.330;9.772;2024-03-17T12:09:22;100760.06;;;10.30;50.94
6500;BME280;3283;52.330;9.772;2024-03-17T12:11:57;100746.72;;;10.47;50.98
6500;BME280;3283;52.330;9.772;2024-03-17T12:14:23;100749.25;;;10.58;49.99
6500;BME280;3283;52.330;9.772;2024-03-17T12:19:17;100750.78;;;10.77;49.37
6500;BME280;3283;52.330;9.772;2024-03-17T12:21:48;100738.44;;;10.82;50.22
6500;BME280;3283;52.330;9.772;2024-03-17T12:24:19;100732.88;;;10.31;50.71
6500;BME280;3283;52.330;9.772;2024-03-17T12:26:45;100731.25;;;10.12;51.87
6500;BME280;3283;52.330;9.772;2024-03-17T12:29:37;100715.31;;;10.32;51.98
6500;BME280;3283;52.330;9.772;2024-03-17T12:32:19;100720.69;;;10.18;51.77
6500;BME280;3283;52.330;9.772;2024-03-17T12:34:48;100716.81;;;9.56;53.69
6500;BME280;3283;52.330;9.772;2024-03-17T12:39:47;100712.38;;;10.61;52.42
6500;BME280;3283;52.330;9.772;2024-03-17T12:42:16;100714.00;;;10.69;51.33
6500;BME280;3283;52.330;9.772;2024-03-17T12:44:56;100709.63;;;10.70;50.48
6500;BME280;3283;52.330;9.772;2024-03-17T12:47:23;100710.31;;;10.84;50.76
6500;BME280;3283;52.330;9.772;2024-03-17T12:49:56;100715.50;;;10.93;50.21
6500;BME280;3283;52.330;9.772;2024-03-17T12:52:29;100709.25;;;10.99;49.33
6500;BME280;3283;52.330;9.772;2024-03-17T12:55:08;100696.97;;;10.98;49.11
6500;BME280;3283;52.330;9.772;2024-03-17T12:58:06;100695.53;;;10.74;48.90
6500;BME280;3283;52.330;9.772;2024-03-17T13:01:16;100697.59;;;10.49;48.63
6500;BME280;3283;52.330;9.772;2024-03-17T13:03:42;100688.28;;;10.13;48.45
6500;BME280;3283;52.330;9.772;2024-03-17T13:06:10;100696.44;;;9.85;47.92
6500;BME280;3283;52.330;9.772;2024-03-17T13:08:48;100688.50;;;9.91;48.83
6500;BME280;3283;52.330;9.772;2024-03-17T13:11:14;100689.94;;;10.26;48.98
6500;BME280;3283;52.330;9.772;2024-03-17T13:13:39;100693.31;;;10.40;48.30
6500;BME280;3283;52.330;9.772;2024-03-17T13:16:05;100709.47;;;10.01;49.48
6500;BME280;3283;52.330;9.772;2024-03-17T13:18:30;100696.94;;;10.30;49.54
6500;BME280;3283;52.330;9.772;2024-03-17T13:20:56;100703.88;;;10.37;50.43
6500;BME280;3283;52.330;9.772;2024-03-17T13:23:23;100696.94;;;10.30;49.90
6500;BME280;3283;52.330;9.772;2024-03-17T13:25:50;100696.94;;;10.30;49.25
6500;BME280;3283;52.330;9.772;2024-03-17T13:28:15;100697.59;;;10.49;49.31
6500;BME280;3283;52.330;9.772;2024-03-17T13:30:41;100692.41;;;10.41;48.91
6500;BME280;3283;52.330;9.772;2024-03-17T13:33:08;100691.59;;;10.36;48.91
6500;BME280;3283;52.330;9.772;2024-03-17T13:35:35;100690.03;;;10.17;48.79
6500;BME280;3283;52.330;9.772;2024-03-17T13:38:03;100689.13;;;10.18;49.44
6500;BME280;3283;52.330;9.772;2024-03-17T13:40:29;100690.03;;;10.15;49.67
6500;BME280;3283;52.330;9.772;2024-03-17T13:42:55;100690.00;;;10.23;49.48
6500;BME280;3283;52.330;9.772;2024-03-17T13:45:23;100691.97;;;9.97;50.66